sensor_id;sensor_type;location;lat;lon;timestamp;P1;durP1;ratioP1;P2;durP2;ratioP2
37701;SDS011;23548;51.196;6.838;2023-02-25T00:00:44;19.65;;;4.07;;
37701;SDS011;23548;51.196;6.838;2023-02-25T00:03:10;21.77;;;3.67;;
37701;SDS011;23548;51.196;6.838;2023-02-25T00:05:40;18.73;;;4.25;;
37701;SDS011;23548;51.196;6.838;2023-02-25T00:08:08;24.30;;;4.45;;
37701;SDS011;23548;51.196;6.838;2023-02-25T00:10:34;17.52;;;4.40;;
37701;SDS011;23548;51.196;6.838;2023-02-25T00:12:59;14.52;;;4.05;;
37701;SDS011;23548;51.196;6.838;2023-02-25T00:15:27;20.42;;;4.05;;
37701;SDS011;23548;51.196;6.838;2023-02-25T00:17:53;15.73;;;4.38;;
37701;SDS011;23548;51.196;6.838;2023-02-25T00:20:19;16.88;;;4.15;;
37701;SDS011;23548;51.196;6.838;2023-02-25T00:22:46;22.25;;;4.30;;
37701;SDS011;23548;51.196;6.838;2023-02-25T00:25:13;23.35;;;4.18;;
37701;SDS011;23548;51.196;6.838;2023-02-25T00:27:41;13.93;;;3.88;;
37701;SDS011;23548;51.196;6.838;2023-02-25T00:30:07;15.20;;;3.97;;
37701;SDS011;23548;51.196;6.838;2023-02-25T00:32:35;26.40;;;4.10;;
37701;SDS011;23548;51.196;6.838;2023-02-25T00:35:01;15.20;;;3.08;;
37701;SDS011;23548;51.196;6.838;2023-02-25T00:37:28;21.25;;;4.57;;
37701;SDS011;23548;51.196;6.838;2023-02-25T00:39:54;21.88;;;4.45;;
37701;SDS011;23548;51.196;6.838;2023-02-25T00:42:20;21.58;;;4.10;;
37701;SDS011;23548;51.196;6.838;2023-02-25T00:44:46;21.98;;;3.50;;
37701;SDS011;23548;51.196;6.838;2023-02-25T00:47:13;14.90;;;3.33;;
37701;SDS011;23548;51.196;6.838;2023-02-25T00:49:40;15.65;;;3.50;;
37701;SDS011;23548;51.196;6.838;2023-02-25T00:52:06;16.70;;;3.70;;
37701;SDS011;23548;51.196;6.838;2023-02-25T00:54:32;11.73;;;3.40;;
37701;SDS011;23548;51.196;6.838;2023-02-25T00:56:59;18.35;;;3.65;;
37701;SDS011;23548;51.196;6.838;2023-02-25T00:59:25;19.38;;;4.63;;
37701;SDS011;23548;51.196;6.838;2023-02-25T01:01:50;16.70;;;3.25;;
37701;SDS011;23548;51.196;6.838;2023-02-25T01:04:16;16.17;;;3.38;;
37701;SDS011;23548;51.196;6.838;2023-02-25T01:06:42;18.33;;;3.20;;
37701;SDS011;23548;51.196;6.838;2023-02-25T01:09:08;15.27;;;3.22;;
37701;SDS011;23548;51.196;6.838;2023-02-25T01:11:39;18.77;;;3.13;;
37701;SDS011;23548;51.196;6.838;2023-02-25T01:14:09;13.82;;;3.70;;
37701;SDS011;23548;51.196;6.838;2023-02-25T01:16:36;14.60;;;2.67;;
37701;SDS011;23548;51.196;6.838;2023-02-25T01:19:11;23.48;;;3.40;;
37701;SDS011;23548;51.196;6.838;2023-02-25T01:21:39;20.65;;;3.28;;
37701;SDS011;23548;51.196;6.838;2023-02-25T01:26:40;15.52;;;2.78;;
37701;SDS011;23548;51.196;6.838;2023-02-25T01:29:09;14.90;;;2.60;;
37701;SDS011;23548;51.196;6.838;2023-02-25T01:31:37;13.23;;;2.58;;
37701;SDS011;23548;51.196;6.838;2023-02-25T01:34:05;15.50;;;2.67;;
37701;SDS011;23548;51.196;6.838;2023-02-25T01:36:32;18.30;;;2.72;;
37701;SDS011;23548;51.196;6.838;2023-02-25T01:38:59;12.30;;;2.70;;
37701;SDS011;23548;51.196;6.838;2023-02-25T01:41:27;26.90;;;3.72;;
37701;SDS011;23548;51.196;6.838;2023-02-25T01:46:30;20.00;;;3.00;;
37701;SDS011;23548;51.196;6.838;2023-02-25T01:48:56;11.45;;;2.55;;
37701;SDS011;23548;51.196;6.838;2023-02-25T01:51:22;15.57;;;2.63;;
37701;SDS011;23548;51.196;6.838;2023-02-25T01:53:51;18.20;;;3.15;;
37701;SDS011;23548;51.196;6.838;2023-02-25T01:56:18;17.85;;;3.15;;
37701;SDS011;23548;51.196;6.838;2023-02-25T01:58:46;16.63;;;4.00;;
37701;SDS011;23548;51.196;6.838;2023-02-25T02:01:14;21.08;;;2.63;;
37701;SDS011;23548;51.196;6.838;2023-02-25T02:03:44;12.30;;;2.35;;
37701;SDS011;23548;51.196;6.838;2023-02-25T02:08:36;18.17;;;2.72;;
37701;SDS011;23548;51.196;6.838;2023-02-25T02:11:03;15.90;;;3.30;;
37701;SDS011;23548;51.196;6.838;2023-02-25T02:13:29;15.85;;;3.10;;
37701;SDS011;23548;51.196;6.838;2023-02-25T02:18:39;15.02;;;3.03;;
37701;SDS011;23548;51.196;6.838;2023-02-25T02:29:28;20.30;;;3.10;;
37701;SDS011;23548;51.196;6.838;2023-02-25T02:34:38;21.25;;;3.03;;
37701;SDS011;23548;51.196;6.838;2023-02-25T02:40:08;12.98;;;2.95;;
37701;SDS011;23548;51.196;6.838;2023-02-25T02:46:28;15.98;;;2.83;;
37701;SDS011;23548;51.196;6.838;2023-02-25T02:51:51;14.07;;;3.33;;
37701;SDS011;23548;51.196;6.838;2023-02-25T02:54:23;16.35;;;2.88;;
37701;SDS011;23548;51.196;6.838;2023-02-25T02:56:51;15.90;;;3.22;;
37701;SDS011;23548;51.196;6.838;2023-02-25T02:59:24;15.63;;;2.92;;
37701;SDS011;23548;51.196;6.838;2023-02-25T03:02:00;15.98;;;2.92;;
37701;SDS011;23548;51.196;6.838;2023-02-25T03:04:31;13.90;;;2.90;;
37701;SDS011;23548;51.196;6.838;2023-02-25T03:07:03;16.60;;;3.10;;
37701;SDS011;23548;51.196;6.838;2023-02-25T03:09:34;15.07;;;2.88;;
37701;SDS011;23548;51.196;6.838;2023-02-25T03:12:04;22.60;;;3.30;;
37701;SDS011;23548;51.196;6.838;2023-02-25T03:14:30;21.67;;;3.58;;
37701;SDS011;23548;51.196;6.838;2023-02-25T03:16:58;23.38;;;3.58;;
37701;SDS011;23548;51.196;6.838;2023-02-25T03:19:39;19.90;;;3.20;;
37701;SDS011;23548;51.196;6.838;2023-02-25T03:22:11;11.52;;;2.95;;
37701;SDS011;23548;51.196;6.838;2023-02-25T03:24:54;12.30;;;3.10;;
37701;SDS011;23548;51.196;6.838;2023-02-25T03:27:41;13.35;;;2.60;;
37701;SDS011;23548;51.196;6.838;2023-02-25T03:32:40;10.32;;;2.20;;
37701;SDS011;23548;51.196;6.838;2023-02-25T03:35:09;15.55;;;3.30;;
37701;SDS011;23548;51.196;6.838;2023-02-25T03:37:38;21.60;;;3.00;;
37701;SDS011;23548;51.196;6.838;2023-02-25T03:40:07;21.58;;;3.08;;
37701;SDS011;23548;51.196;6.838;2023-02-25T03:42:35;18.02;;;2.80;;
37701;SDS011;23548;51.196;6.838;2023-02-25T03:45:07;17.23;;;2.80;;
37701;SDS011;23548;51.196;6.838;2023-02-25T03:47:37;20.10;;;3.13;;
37701;SDS011;23548;51.196;6.838;2023-02-25T03:52:47;13.15;;;3.25;;
37701;SDS011;23548;51.196;6.838;2023-02-25T03:55:14;18.60;;;2.97;;
37701;SDS011;23548;51.196;6.838;2023-02-25T03:57:42;14.05;;;2.90;;
37701;SDS011;23548;51.196;6.838;2023-02-25T04:00:23;16.35;;;2.83;;
37701;SDS011;23548;51.196;6.838;2023-02-25T04:02:51;23.33;;;3.28;;
37701;SDS011;23548;51.196;6.838;2023-02-25T04:05:18;17.73;;;3.88;;
37701;SDS011;23548;51.196;6.838;2023-02-25T04:07:45;18.73;;;3.20;;
37701;SDS011;23548;51.196;6.838;2023-02-25T04:10:12;14.57;;;2.63;;
37701;SDS011;23548;51.196;6.838;2023-02-25T04:12:39;21.17;;;3.70;;
37701;SDS011;23548;51.196;6.838;2023-02-25T04:15:05;21.25;;;3.00;;
37701;SDS011;23548;51.196;6.838;2023-02-25T04:17:32;15.65;;;2.92;;
37701;SDS011;23548;51.196;6.838;2023-02-25T04:19:58;16.27;;;2.85;;
37701;SDS011;23548;51.196;6.838;2023-02-25T04:22:24;16.75;;;2.50;;
37701;SDS011;23548;51.196;6.838;2023-02-25T04:24:50;18.55;;;2.67;;
37701;SDS011;23548;51.196;6.838;2023-02-25T04:27:16;17.45;;;2.75;;
37701;SDS011;23548;51.196;6.838;2023-02-25T04:29:42;14.18;;;2.50;;
37701;SDS011;23548;51.196;6.838;2023-02-25T04:32:08;12.75;;;3.00;;
37701;SDS011;23548;51.196;6.838;2023-02-25T04:34:35;19.67;;;3.50;;
37701;SDS011;23548;51.196;6.838;2023-02-25T04:37:01;14.15;;;2.17;;
37701;SDS011;23548;51.196;6.838;2023-02-25T04:39:29;28.30;;;3.13;;
37701;SDS011;23548;51.196;6.838;2023-02-25T04:41:55;16.13;;;2.65;;
37701;SDS011;23548;51.196;6.838;2023-02-25T04:44:21;18.08;;;3.20;;
37701;SDS011;23548;51.196;6.838;2023-02-25T04:46:47;21.77;;;3.78;;
37701;SDS011;23548;51.196;6.838;2023-02-25T04:49:16;20.35;;;3.38;;
37701;SDS011;23548;51.196;6.838;2023-02-25T04:51:43;14.32;;;2.60;;
37701;SDS011;23548;51.196;6.838;2023-02-25T04:54:09;16.35;;;2.70;;
37701;SDS011;23548;51.196;6.838;2023-02-25T04:56:36;27.00;;;3.05;;
37701;SDS011;23548;51.196;6.838;2023-02-25T04:59:03;19.05;;;2.83;;
37701;SDS011;23548;51.196;6.838;2023-02-25T05:01:30;15.20;;;3.13;;
37701;SDS011;23548;51.196;6.838;2023-02-25T05:03:56;12.35;;;2.40;;
37701;SDS011;23548;51.196;6.838;2023-02-25T05:06:25;20.75;;;2.78;;
37701;SDS011;23548;51.196;6.838;2023-02-25T05:08:52;14.77;;;2.17;;
37701;SDS011;23548;51.196;6.838;2023-02-25T05:11:18;15.13;;;2.65;;
37701;SDS011;23548;51.196;6.838;2023-02-25T05:13:44;11.52;;;2.97;;
37701;SDS011;23548;51.196;6.838;2023-02-25T05:16:12;22.48;;;3.03;;
37701;SDS011;23548;51.196;6.838;2023-02-25T05:18:41;21.27;;;3.33;;
37701;SDS011;23548;51.196;6.838;2023-02-25T05:21:08;13.55;;;3.40;;
37701;SDS011;23548;51.196;6.838;2023-02-25T05:23:37;21.83;;;2.42;;
37701;SDS011;23548;51.196;6.838;2023-02-25T05:26:03;19.90;;;3.20;;
37701;SDS011;23548;51.196;6.838;2023-02-25T05:28:30;14.70;;;3.42;;
37701;SDS011;23548;51.196;6.838;2023-02-25T05:30:55;14.60;;;2.40;;
37701;SDS011;23548;51.196;6.838;2023-02-25T05:33:21;15.93;;;2.90;;
37701;SDS011;23548;51.196;6.838;2023-02-25T05:35:48;19.70;;;3.20;;
37701;SDS011;23548;51.196;6.838;2023-02-25T05:38:14;11.73;;;2.88;;
37701;SDS011;23548;51.196;6.838;2023-02-25T05:40:40;15.75;;;2.92;;
37701;SDS011;23548;51.196;6.838;2023-02-25T05:43:05;26.25;;;3.50;;
37701;SDS011;23548;51.196;6.838;2023-02-25T05:45:31;13.13;;;3.10;;
37701;SDS011;23548;51.196;6.838;2023-02-25T05:47:57;14.35;;;2.45;;
37701;SDS011;23548;51.196;6.838;2023-02-25T05:50:23;18.88;;;2.80;;
37701;SDS011;23548;51.196;6.838;2023-02-25T05:52:48;13.05;;;2.65;;
37701;SDS011;23548;51.196;6.838;2023-02-25T05:55:14;14.25;;;2.95;;
37701;SDS011;23548;51.196;6.838;2023-02-25T05:57:40;15.57;;;3.10;;
37701;SDS011;23548;51.196;6.838;2023-02-25T06:00:07;21.35;;;2.90;;
37701;SDS011;23548;51.196;6.838;2023-02-25T06:02:34;13.63;;;2.72;;
37701;SDS011;23548;51.196;6.838;2023-02-25T06:05:01;18.02;;;3.20;;
37701;SDS011;23548;51.196;6.838;2023-02-25T06:07:29;11.55;;;2.33;;
37701;SDS011;23548;51.196;6.838;2023-02-25T06:09:57;23.13;;;3.05;;
37701;SDS011;23548;51.196;6.838;2023-02-25T06:12:28;16.20;;;2.85;;
37701;SDS011;23548;51.196;6.838;2023-02-25T06:14:55;18.10;;;3.17;;
37701;SDS011;23548;51.196;6.838;2023-02-25T06:17:21;20.52;;;3.38;;
37701;SDS011;23548;51.196;6.838;2023-02-25T06:19:49;17.67;;;2.83;;
37701;SDS011;23548;51.196;6.838;2023-02-25T06:22:16;14.05;;;2.88;;
37701;SDS011;23548;51.196;6.838;2023-02-25T06:24:45;17.90;;;2.92;;
37701;SDS011;23548;51.196;6.838;2023-02-25T06:27:11;18.10;;;2.97;;
37701;SDS011;23548;51.196;6.838;2023-02-25T06:29:38;20.08;;;3.42;;
37701;SDS011;23548;51.196;6.838;2023-02-25T06:32:06;14.68;;;2.72;;
37701;SDS011;23548;51.196;6.838;2023-02-25T06:34:34;14.02;;;2.25;;
37701;SDS011;23548;51.196;6.838;2023-02-25T06:36:59;18.60;;;3.25;;
37701;SDS011;23548;51.196;6.838;2023-02-25T06:39:26;16.25;;;3.28;;
37701;SDS011;23548;51.196;6.838;2023-02-25T06:41:51;15.68;;;2.50;;
37701;SDS011;23548;51.196;6.838;2023-02-25T06:44:17;14.80;;;3.03;;
37701;SDS011;23548;51.196;6.838;2023-02-25T06:46:43;22.65;;;3.47;;
37701;SDS011;23548;51.196;6.838;2023-02-25T06:49:09;17.73;;;2.38;;
37701;SDS011;23548;51.196;6.838;2023-02-25T06:51:35;21.92;;;3.10;;
37701;SDS011;23548;51.196;6.838;2023-02-25T06:54:01;10.32;;;2.78;;
37701;SDS011;23548;51.196;6.838;2023-02-25T06:56:27;15.68;;;2.50;;
37701;SDS011;23548;51.196;6.838;2023-02-25T06:58:54;16.98;;;2.83;;
37701;SDS011;23548;51.196;6.838;2023-02-25T07:01:24;18.20;;;2.78;;
37701;SDS011;23548;51.196;6.838;2023-02-25T07:03:50;13.88;;;2.60;;
37701;SDS011;23548;51.196;6.838;2023-02-25T07:06:16;22.42;;;3.90;;
37701;SDS011;23548;51.196;6.838;2023-02-25T07:08:42;13.88;;;3.05;;
37701;SDS011;23548;51.196;6.838;2023-02-25T07:13:44;13.77;;;3.30;;
37701;SDS011;23548;51.196;6.838;2023-02-25T07:16:11;15.52;;;2.55;;
37701;SDS011;23548;51.196;6.838;2023-02-25T07:18:38;16.98;;;4.18;;
37701;SDS011;23548;51.196;6.838;2023-02-25T07:21:05;20.00;;;2.83;;
37701;SDS011;23548;51.196;6.838;2023-02-25T07:23:31;18.67;;;3.47;;
37701;SDS011;23548;51.196;6.838;2023-02-25T07:26:00;19.80;;;3.13;;
37701;SDS011;23548;51.196;6.838;2023-02-25T07:28:27;18.45;;;3.33;;
37701;SDS011;23548;51.196;6.838;2023-02-25T07:30:54;13.57;;;3.08;;
37701;SDS011;23548;51.196;6.838;2023-02-25T07:33:20;20.20;;;3.53;;
37701;SDS011;23548;51.196;6.838;2023-02-25T07:35:45;24.50;;;3.95;;
37701;SDS011;23548;51.196;6.838;2023-02-25T07:38:11;17.00;;;2.80;;
37701;SDS011;23548;51.196;6.838;2023-02-25T07:40:38;14.68;;;3.55;;
37701;SDS011;23548;51.196;6.838;2023-02-25T07:43:05;12.63;;;3.03;;
37701;SDS011;23548;51.196;6.838;2023-02-25T07:45:32;18.48;;;3.22;;
37701;SDS011;23548;51.196;6.838;2023-02-25T07:47:57;22.10;;;2.85;;
37701;SDS011;23548;51.196;6.838;2023-02-25T07:50:23;21.45;;;3.67;;
37701;SDS011;23548;51.196;6.838;2023-02-25T07:52:49;15.88;;;2.92;;
37701;SDS011;23548;51.196;6.838;2023-02-25T07:55:15;20.88;;;3.30;;
37701;SDS011;23548;51.196;6.838;2023-02-25T07:57:42;23.30;;;3.80;;
37701;SDS011;23548;51.196;6.838;2023-02-25T08:00:08;22.27;;;3.10;;
37701;SDS011;23548;51.196;6.838;2023-02-25T08:02:35;17.40;;;4.07;;
37701;SDS011;23548;51.196;6.838;2023-02-25T08:05:01;16.15;;;3.45;;
37701;SDS011;23548;51.196;6.838;2023-02-25T08:07:28;25.85;;;3.53;;
37701;SDS011;23548;51.196;6.838;2023-02-25T08:09:54;24.77;;;3.33;;
37701;SDS011;23548;51.196;6.838;2023-02-25T08:12:19;16.52;;;3.17;;
37701;SDS011;23548;51.196;6.838;2023-02-25T08:14:45;15.95;;;3.63;;
37701;SDS011;23548;51.196;6.838;2023-02-25T08:17:11;20.15;;;3.88;;
37701;SDS011;23548;51.196;6.838;2023-02-25T08:19:37;18.30;;;2.95;;
37701;SDS011;23548;51.196;6.838;2023-02-25T08:22:03;19.92;;;3.08;;
37701;SDS011;23548;51.196;6.838;2023-02-25T08:24:30;18.40;;;2.90;;
37701;SDS011;23548;51.196;6.838;2023-02-25T08:26:56;20.30;;;3.00;;
37701;SDS011;23548;51.196;6.838;2023-02-25T08:29:22;19.50;;;3.00;;
37701;SDS011;23548;51.196;6.838;2023-02-25T08:31:49;16.63;;;3.17;;
37701;SDS011;23548;51.196;6.838;2023-02-25T08:34:15;19.77;;;3.20;;
37701;SDS011;23548;51.196;6.838;2023-02-25T08:36:42;35.15;;;4.28;;
37701;SDS011;23548;51.196;6.838;2023-02-25T08:39:08;19.50;;;3.60;;
37701;SDS011;23548;51.196;6.838;2023-02-25T08:41:34;24.58;;;3.85;;
37701;SDS011;23548;51.196;6.838;2023-02-25T08:44:01;23.95;;;3.33;;
37701;SDS011;23548;51.196;6.838;2023-02-25T08:46:28;21.23;;;3.33;;
37701;SDS011;23548;51.196;6.838;2023-02-25T08:48:56;22.33;;;3.60;;
37701;SDS011;23548;51.196;6.838;2023-02-25T08:51:23;20.08;;;3.50;;
37701;SDS011;23548;51.196;6.838;2023-02-25T08:53:58;13.82;;;3.13;;
37701;SDS011;23548;51.196;6.838;2023-02-25T08:56:25;22.95;;;4.60;;
37701;SDS011;23548;51.196;6.838;2023-02-25T08:58:52;23.13;;;4.30;;
37701;SDS011;23548;51.196;6.838;2023-02-25T09:01:18;20.63;;;4.22;;
37701;SDS011;23548;51.196;6.838;2023-02-25T09:03:45;17.35;;;4.65;;
37701;SDS011;23548;51.196;6.838;2023-02-25T09:06:22;23.23;;;4.90;;
37701;SDS011;23548;51.196;6.838;2023-02-25T09:08:53;17.98;;;4.45;;
37701;SDS011;23548;51.196;6.838;2023-02-25T09:11:20;21.13;;;4.72;;
37701;SDS011;23548;51.196;6.838;2023-02-25T09:13:47;24.17;;;5.50;;
37701;SDS011;23548;51.196;6.838;2023-02-25T09:16:13;20.05;;;5.88;;
37701;SDS011;23548;51.196;6.838;2023-02-25T09:18:46;22.30;;;4.93;;
37701;SDS011;23548;51.196;6.838;2023-02-25T09:21:12;29.45;;;4.18;;
37701;SDS011;23548;51.196;6.838;2023-02-25T09:23:39;20.02;;;4.47;;
37701;SDS011;23548;51.196;6.838;2023-02-25T09:26:05;19.48;;;4.70;;
37701;SDS011;23548;51.196;6.838;2023-02-25T09:28:31;23.70;;;4.80;;
37701;SDS011;23548;51.196;6.838;2023-02-25T09:30:57;18.08;;;3.90;;
37701;SDS011;23548;51.196;6.838;2023-02-25T09:33:27;18.73;;;4.43;;
37701;SDS011;23548;51.196;6.838;2023-02-25T09:35:54;14.10;;;3.60;;
37701;SDS011;23548;51.196;6.838;2023-02-25T09:38:20;19.08;;;4.13;;
37701;SDS011;23548;51.196;6.838;2023-02-25T09:40:47;26.25;;;4.55;;
37701;SDS011;23548;51.196;6.838;2023-02-25T09:45:52;23.85;;;4.30;;
37701;SDS011;23548;51.196;6.838;2023-02-25T09:48:27;19.73;;;4.10;;
37701;SDS011;23548;51.196;6.838;2023-02-25T09:50:59;24.02;;;5.32;;
37701;SDS011;23548;51.196;6.838;2023-02-25T09:53:41;28.92;;;5.25;;
37701;SDS011;23548;51.196;6.838;2023-02-25T09:56:21;24.40;;;5.03;;
37701;SDS011;23548;51.196;6.838;2023-02-25T09:58:55;24.83;;;7.07;;
37701;SDS011;23548;51.196;6.838;2023-02-25T10:01:30;20.17;;;7.97;;
37701;SDS011;23548;51.196;6.838;2023-02-25T10:06:40;18.05;;;6.55;;
37701;SDS011;23548;51.196;6.838;2023-02-25T10:25:14;11.82;;;3.67;;
37701;SDS011;23548;51.196;6.838;2023-02-25T10:27:46;13.68;;;4.40;;
37701;SDS011;23548;51.196;6.838;2023-02-25T10:30:22;12.15;;;3.55;;
37701;SDS011;23548;51.196;6.838;2023-02-25T10:32:56;9.35;;;3.25;;
37701;SDS011;23548;51.196;6.838;2023-02-25T10:35:31;5.72;;;2.08;;
37701;SDS011;23548;51.196;6.838;2023-02-25T10:38:00;4.60;;;1.38;;
37701;SDS011;23548;51.196;6.838;2023-02-25T10:40:26;5.38;;;1.40;;
37701;SDS011;23548;51.196;6.838;2023-02-25T10:42:53;4.93;;;1.45;;
37701;SDS011;23548;51.196;6.838;2023-02-25T10:45:24;4.30;;;1.15;;
37701;SDS011;23548;51.196;6.838;2023-02-25T10:48:24;6.57;;;1.48;;
37701;SDS011;23548;51.196;6.838;2023-02-25T10:53:50;5.50;;;1.45;;
37701;SDS011;23548;51.196;6.838;2023-02-25T10:56:27;6.93;;;1.45;;
37701;SDS011;23548;51.196;6.838;2023-02-25T10:59:27;5.45;;;2.00;;
37701;SDS011;23548;51.196;6.838;2023-02-25T11:01:57;5.25;;;1.70;;
37701;SDS011;23548;51.196;6.838;2023-02-25T11:04:32;5.40;;;1.65;;
37701;SDS011;23548;51.196;6.838;2023-02-25T11:07:02;3.95;;;1.70;;
37701;SDS011;23548;51.196;6.838;2023-02-25T11:12:42;6.32;;;2.28;;
37701;SDS011;23548;51.196;6.838;2023-02-25T11:17:51;4.55;;;2.30;;
37701;SDS011;23548;51.196;6.838;2023-02-25T11:20:25;7.72;;;2.58;;
37701;SDS011;23548;51.196;6.838;2023-02-25T11:22:54;7.32;;;2.63;;
37701;SDS011;23548;51.196;6.838;2023-02-25T11:25:37;5.65;;;2.50;;
37701;SDS011;23548;51.196;6.838;2023-02-25T11:28:05;9.30;;;2.58;;
37701;SDS011;23548;51.196;6.838;2023-02-25T11:30:40;6.18;;;2.60;;
37701;SDS011;23548;51.196;6.838;2023-02-25T11:36:04;8.57;;;2.50;;
37701;SDS011;23548;51.196;6.838;2023-02-25T11:41:15;7.95;;;2.63;;
37701;SDS011;23548;51.196;6.838;2023-02-25T11:43:44;7.47;;;2.70;;
37701;SDS011;23548;51.196;6.838;2023-02-25T11:46:12;10.65;;;3.30;;
37701;SDS011;23548;51.196;6.838;2023-02-25T11:48:51;6.80;;;2.40;;
37701;SDS011;23548;51.196;6.838;2023-02-25T11:56:50;8.43;;;1.75;;
37701;SDS011;23548;51.196;6.838;2023-02-25T11:59:34;11.68;;;2.63;;
37701;SDS011;23548;51.196;6.838;2023-02-25T12:02:42;14.77;;;1.95;;
37701;SDS011;23548;51.196;6.838;2023-02-25T12:22:00;8.68;;;1.98;;
37701;SDS011;23548;51.196;6.838;2023-02-25T12:41:47;13.02;;;2.17;;
37701;SDS011;23548;51.196;6.838;2023-02-25T12:52:28;8.18;;;2.13;;
37701;SDS011;23548;51.196;6.838;2023-02-25T12:58:25;7.65;;;1.67;;
37701;SDS011;23548;51.196;6.838;2023-02-25T13:10:00;6.38;;;1.92;;
37701;SDS011;23548;51.196;6.838;2023-02-25T13:12:38;11.52;;;2.08;;
37701;SDS011;23548;51.196;6.838;2023-02-25T13:16:28;8.60;;;2.17;;
37701;SDS011;23548;51.196;6.838;2023-02-25T13:18:57;10.77;;;2.30;;
37701;SDS011;23548;51.196;6.838;2023-02-25T13:24:18;10.32;;;2.25;;
37701;SDS011;23548;51.196;6.838;2023-02-25T13:41:19;6.13;;;1.98;;
37701;SDS011;23548;51.196;6.838;2023-02-25T13:58:56;7.38;;;1.63;;
37701;SDS011;23548;51.196;6.838;2023-02-25T14:10:41;6.47;;;1.85;;
37701;SDS011;23548;51.196;6.838;2023-02-25T14:19:25;7.22;;;1.55;;
37701;SDS011;23548;51.196;6.838;2023-02-25T14:33:24;6.72;;;1.92;;
37701;SDS011;23548;51.196;6.838;2023-02-25T14:35:58;8.25;;;2.28;;
37701;SDS011;23548;51.196;6.838;2023-02-25T14:38:51;4.10;;;1.60;;
37701;SDS011;23548;51.196;6.838;2023-02-25T14:44:04;5.45;;;1.52;;
37701;SDS011;23548;51.196;6.838;2023-02-25T14:49:23;2.83;;;1.33;;
37701;SDS011;23548;51.196;6.838;2023-02-25T15:00:10;4.57;;;1.45;;
37701;SDS011;23548;51.196;6.838;2023-02-25T15:16:36;3.33;;;1.08;;
37701;SDS011;23548;51.196;6.838;2023-02-25T15:22:17;3.33;;;1.17;;
37701;SDS011;23548;51.196;6.838;2023-02-25T15:24:48;4.55;;;1.20;;
37701;SDS011;23548;51.196;6.838;2023-02-25T15:27:31;3.40;;;1.30;;
37701;SDS011;23548;51.196;6.838;2023-02-25T15:30:01;2.33;;;0.82;;
37701;SDS011;23548;51.196;6.838;2023-02-25T15:35:11;5.07;;;1.13;;
37701;SDS011;23548;51.196;6.838;2023-02-25T15:53:08;3.13;;;1.25;;
37701;SDS011;23548;51.196;6.838;2023-02-25T15:55:45;4.20;;;1.25;;
37701;SDS011;23548;51.196;6.838;2023-02-25T16:00:53;3.17;;;1.30;;
37701;SDS011;23548;51.196;6.838;2023-02-25T16:05:51;7.13;;;1.27;;
37701;SDS011;23548;51.196;6.838;2023-02-25T16:08:22;6.10;;;1.63;;
37701;SDS011;23548;51.196;6.838;2023-02-25T16:10:52;3.70;;;1.25;;
37701;SDS011;23548;51.196;6.838;2023-02-25T16:13:31;3.45;;;1.00;;
37701;SDS011;23548;51.196;6.838;2023-02-25T16:15:59;6.60;;;1.80;;
37701;SDS011;23548;51.196;6.838;2023-02-25T16:18:31;8.05;;;1.38;;
37701;SDS011;23548;51.196;6.838;2023-02-25T16:21:01;5.70;;;1.48;;
37701;SDS011;23548;51.196;6.838;2023-02-25T16:23:30;2.55;;;1.10;;
37701;SDS011;23548;51.196;6.838;2023-02-25T16:26:20;5.78;;;1.23;;
37701;SDS011;23548;51.196;6.838;2023-02-25T16:31:34;3.53;;;1.20;;
37701;SDS011;23548;51.196;6.838;2023-02-25T16:34:10;4.45;;;1.40;;
37701;SDS011;23548;51.196;6.838;2023-02-25T16:36:46;3.63;;;1.00;;
37701;SDS011;23548;51.196;6.838;2023-02-25T16:39:23;6.32;;;1.38;;
37701;SDS011;23548;51.196;6.838;2023-02-25T16:41:51;3.08;;;1.35;;
37701;SDS011;23548;51.196;6.838;2023-02-25T16:44:23;2.92;;;1.27;;
37701;SDS011;23548;51.196;6.838;2023-02-25T16:46:54;4.55;;;1.20;;
37701;SDS011;23548;51.196;6.838;2023-02-25T16:51:58;8.35;;;1.90;;
37701;SDS011;23548;51.196;6.838;2023-02-25T16:54:30;5.25;;;1.65;;
37701;SDS011;23548;51.196;6.838;2023-02-25T16:57:02;5.05;;;1.42;;
37701;SDS011;23548;51.196;6.838;2023-02-25T16:59:33;4.32;;;1.40;;
37701;SDS011;23548;51.196;6.838;2023-02-25T17:02:02;6.88;;;1.45;;
37701;SDS011;23548;51.196;6.838;2023-02-25T17:04:41;6.53;;;1.25;;
37701;SDS011;23548;51.196;6.838;2023-02-25T17:07:16;4.43;;;1.38;;
37701;SDS011;23548;51.196;6.838;2023-02-25T17:09:53;6.07;;;1.55;;
37701;SDS011;23548;51.196;6.838;2023-02-25T17:17:39;5.13;;;1.63;;
37701;SDS011;23548;51.196;6.838;2023-02-25T17:20:11;5.38;;;1.42;;
37701;SDS011;23548;51.196;6.838;2023-02-25T17:22:39;6.13;;;1.83;;
37701;SDS011;23548;51.196;6.838;2023-02-25T17:25:10;5.97;;;1.48;;
37701;SDS011;23548;51.196;6.838;2023-02-25T17:27:42;5.55;;;1.70;;
37701;SDS011;23548;51.196;6.838;2023-02-25T17:31:02;7.45;;;1.80;;
37701;SDS011;23548;51.196;6.838;2023-02-25T17:32:59;4.88;;;1.90;;
37701;SDS011;23548;51.196;6.838;2023-02-25T17:35:25;9.75;;;2.85;;
37701;SDS011;23548;51.196;6.838;2023-02-25T17:37:52;10.48;;;2.05;;
37701;SDS011;23548;51.196;6.838;2023-02-25T17:40:19;5.13;;;1.63;;
37701;SDS011;23548;51.196;6.838;2023-02-25T17:42:50;4.82;;;1.65;;
37701;SDS011;23548;51.196;6.838;2023-02-25T17:45:53;7.22;;;1.40;;
37701;SDS011;23548;51.196;6.838;2023-02-25T17:48:40;7.53;;;2.15;;
37701;SDS011;23548;51.196;6.838;2023-02-25T17:51:09;5.95;;;1.40;;
37701;SDS011;23548;51.196;6.838;2023-02-25T17:56:14;8.30;;;2.45;;
37701;SDS011;23548;51.196;6.838;2023-02-25T17:58:43;10.02;;;2.55;;
37701;SDS011;23548;51.196;6.838;2023-02-25T18:04:39;4.68;;;1.67;;
37701;SDS011;23548;51.196;6.838;2023-02-25T18:09:53;5.80;;;1.90;;
37701;SDS011;23548;51.196;6.838;2023-02-25T18:14:58;6.13;;;2.05;;
37701;SDS011;23548;51.196;6.838;2023-02-25T18:17:33;6.60;;;1.90;;
37701;SDS011;23548;51.196;6.838;2023-02-25T18:20:24;8.43;;;1.80;;
37701;SDS011;23548;51.196;6.838;2023-02-25T18:23:04;4.85;;;1.73;;
37701;SDS011;23548;51.196;6.838;2023-02-25T18:27:59;3.80;;;1.70;;
37701;SDS011;23548;51.196;6.838;2023-02-25T18:30:26;4.78;;;1.95;;
37701;SDS011;23548;51.196;6.838;2023-02-25T18:32:53;7.97;;;1.88;;
37701;SDS011;23548;51.196;6.838;2023-02-25T18:35:21;10.15;;;2.00;;
37701;SDS011;23548;51.196;6.838;2023-02-25T18:37:49;5.45;;;2.00;;
37701;SDS011;23548;51.196;6.838;2023-02-25T18:42:59;6.03;;;1.90;;
37701;SDS011;23548;51.196;6.838;2023-02-25T18:45:27;5.63;;;1.85;;
37701;SDS011;23548;51.196;6.838;2023-02-25T18:47:54;6.15;;;1.60;;
37701;SDS011;23548;51.196;6.838;2023-02-25T18:50:21;6.05;;;2.13;;
37701;SDS011;23548;51.196;6.838;2023-02-25T18:52:48;6.45;;;1.80;;
37701;SDS011;23548;51.196;6.838;2023-02-25T18:55:18;6.00;;;2.10;;
37701;SDS011;23548;51.196;6.838;2023-02-25T18:57:46;7.95;;;2.40;;
37701;SDS011;23548;51.196;6.838;2023-02-25T19:00:12;10.43;;;3.47;;
37701;SDS011;23548;51.196;6.838;2023-02-25T19:02:49;5.13;;;2.20;;
37701;SDS011;23548;51.196;6.838;2023-02-25T19:05:21;8.55;;;2.45;;
37701;SDS011;23548;51.196;6.838;2023-02-25T19:07:47;7.28;;;2.33;;
37701;SDS011;23548;51.196;6.838;2023-02-25T19:10:18;6.25;;;2.33;;
37701;SDS011;23548;51.196;6.838;2023-02-25T19:12:49;9.07;;;2.25;;
37701;SDS011;23548;51.196;6.838;2023-02-25T19:15:17;4.85;;;2.30;;
37701;SDS011;23548;51.196;6.838;2023-02-25T19:17:44;8.85;;;2.63;;
37701;SDS011;23548;51.196;6.838;2023-02-25T19:20:11;5.28;;;2.40;;
37701;SDS011;23548;51.196;6.838;2023-02-25T19:22:41;11.07;;;2.60;;
37701;SDS011;23548;51.196;6.838;2023-02-25T19:25:21;5.80;;;2.05;;
37701;SDS011;23548;51.196;6.838;2023-02-25T19:27:52;7.50;;;2.42;;